createdAt,value
2019-01-05T00:00:10.150Z,26.38
2019-01-05T00:02:36.491Z,26.48
2019-01-05T00:05:02.878Z,26.41
2019-01-05T00:07:29.206Z,26.48
2019-01-05T00:09:55.543Z,26.61
2019-01-05T00:12:21.868Z,26.55
2019-01-05T00:14:48.276Z,26.40
2019-01-05T00:17:14.653Z,26.53
2019-01-05T00:19:41.202Z,26.43
2019-01-05T00:22:07.493Z,26.48
2019-01-05T00:24:33.825Z,26.81
2019-01-05T00:27:00.157Z,26.79
2019-01-05T00:29:26.557Z,26.74
2019-01-05T00:31:52.885Z,26.43
2019-01-05T00:34:19.269Z,26.51
2019-01-05T00:36:45.610Z,26.47
2019-01-05T00:39:11.952Z,26.61
2019-01-05T00:41:38.288Z,26.63
2019-01-05T00:44:04.636Z,26.59
2019-01-05T00:46:31.031Z,26.64
2019-01-05T00:48:57.355Z,26.50
2019-01-05T00:51:23.713Z,26.54
2019-01-05T00:53:50.049Z,26.46
2019-01-05T00:56:16.386Z,26.85
2019-01-05T00:58:42.809Z,26.75
2019-01-05T01:01:09.188Z,26.64
2019-01-05T01:03:35.509Z,26.47
2019-01-05T01:06:01.852Z,26.56
2019-01-05T01:08:28.265Z,26.55
2019-01-05T01:10:54.675Z,26.73
2019-01-05T01:13:21.005Z,26.72
2019-01-05T01:15:47.335Z,26.69
2019-01-05T01:18:13.686Z,26.59
2019-01-05T01:20:40.069Z,26.53
2019-01-05T01:23:06.372Z,26.61
2019-01-05T01:25:32.759Z,26.54
2019-01-05T01:27:59.094Z,26.73
2019-01-05T01:30:25.438Z,26.69
2019-01-05T01:32:51.772Z,26.96
2019-01-05T01:35:18.168Z,26.44
2019-01-05T01:37:44.505Z,26.55
2019-01-05T01:40:10.844Z,26.54
2019-01-05T01:42:37.196Z,26.56
2019-01-05T01:45:03.561Z,26.69
2019-01-05T01:47:29.850Z,26.62
2019-01-05T01:49:56.183Z,26.57
2019-01-05T01:52:22.518Z,26.61
2019-01-05T01:54:48.849Z,26.62
2019-01-05T01:57:15.271Z,26.54
2019-01-05T01:59:41.574Z,26.58
2019-01-05T02:02:07.972Z,26.51
2019-01-05T02:04:34.359Z,26.57
2019-01-05T02:07:00.691Z,26.54
2019-01-05T02:09:26.966Z,26.57
2019-01-05T02:11:53.361Z,26.52
2019-01-05T02:14:19.682Z,26.56
2019-01-05T02:16:46.022Z,26.79
2019-01-05T02:19:12.412Z,26.88
2019-01-05T02:21:38.706Z,26.75
2019-01-05T02:24:05.100Z,26.65
2019-01-05T02:26:31.499Z,26.65
2019-01-05T02:28:57.836Z,26.62
2019-01-05T02:31:24.159Z,26.61
2019-01-05T02:33:50.510Z,26.61
2019-01-05T02:36:16.883Z,26.73
2019-01-05T02:38:43.317Z,26.56
2019-01-05T02:41:09.702Z,26.59
2019-01-05T02:43:36.156Z,26.61
2019-01-05T02:46:02.526Z,26.67
2019-01-05T02:48:28.861Z,26.75
2019-01-05T02:50:55.193Z,26.81
2019-01-05T02:53:21.527Z,26.86
2019-01-05T02:55:47.864Z,26.68
2019-01-05T02:58:14.207Z,26.64
2019-01-05T03:00:40.617Z,26.72
2019-01-05T03:03:06.951Z,26.67
2019-01-05T03:05:33.317Z,26.64
2019-01-05T03:07:59.677Z,27.05
2019-01-05T03:10:26.012Z,26.77
2019-01-05T03:12:52.349Z,26.81
2019-01-05T03:15:18.737Z,26.84
2019-01-05T03:17:45.023Z,26.84
2019-01-05T03:20:11.545Z,26.71
2019-01-05T03:22:37.895Z,26.92
2019-01-05T03:25:04.385Z,26.80
2019-01-05T03:27:30.654Z,26.94
2019-01-05T03:29:56.983Z,26.76
2019-01-05T03:32:23.319Z,26.73
2019-01-05T03:34:49.665Z,26.72
2019-01-05T03:37:16.068Z,26.73
2019-01-05T03:39:42.411Z,26.86
2019-01-05T03:42:08.728Z,26.83
2019-01-05T03:44:35.128Z,26.74
2019-01-05T03:47:01.395Z,26.81
2019-01-05T03:49:27.813Z,26.66
2019-01-05T03:51:54.251Z,26.79
2019-01-05T03:54:20.582Z,26.86
2019-01-05T03:56:46.909Z,26.88
2019-01-05T03:59:13.317Z,26.77
2019-01-05T04:01:39.569Z,26.81
2019-01-05T04:04:05.967Z,26.72
2019-01-05T04:06:32.401Z,26.55
2019-01-05T04:08:58.737Z,26.76
2019-01-05T04:11:25.067Z,26.92
2019-01-05T04:13:51.397Z,26.96
2019-01-05T04:16:17.812Z,26.90
2019-01-05T04:18:44.198Z,26.92
2019-01-05T04:21:10.519Z,26.84
2019-01-05T04:23:36.912Z,26.85
2019-01-05T04:26:03.284Z,26.88
2019-01-05T04:28:29.615Z,27.02
2019-01-05T04:30:56.059Z,27.05
2019-01-05T04:33:22.474Z,26.77
2019-01-05T04:35:48.811Z,26.78
2019-01-05T04:38:15.134Z,26.68
2019-01-05T04:40:41.460Z,26.85
2019-01-05T04:43:07.898Z,26.82
2019-01-05T04:45:34.225Z,26.89
2019-01-05T04:48:00.643Z,26.94
2019-01-05T04:50:26.977Z,26.80
2019-01-05T04:52:53.330Z,26.90
2019-01-05T04:55:19.685Z,26.92
2019-01-05T04:57:46.025Z,26.80
2019-01-05T05:00:12.434Z,26.79
2019-01-05T05:02:38.933Z,26.92
2019-01-05T05:05:05.261Z,26.95
2019-01-05T05:07:31.622Z,26.85
2019-01-05T05:09:58.030Z,26.89
2019-01-05T05:12:24.308Z,26.74
2019-01-05T05:14:50.825Z,26.85
2019-01-05T05:17:17.206Z,26.90
2019-01-05T05:19:43.565Z,27.09
2019-01-05T05:22:09.960Z,26.94
2019-01-05T05:24:36.337Z,26.76
2019-01-05T05:27:02.758Z,26.83
2019-01-05T05:29:29.055Z,26.79
2019-01-05T05:31:55.440Z,26.84
2019-01-05T05:34:21.868Z,26.98
2019-01-05T05:36:48.259Z,26.96
2019-01-05T05:39:14.617Z,27.00
2019-01-05T05:41:40.947Z,27.05
2019-01-05T05:44:07.408Z,26.89
2019-01-05T05:46:33.747Z,27.01
2019-01-05T05:49:00.085Z,26.89
2019-01-05T05:51:26.442Z,26.85
2019-01-05T05:53:52.768Z,26.94
2019-01-05T05:56:19.148Z,26.96
2019-01-05T05:58:45.475Z,27.18
2019-01-05T06:01:11.794Z,26.89
2019-01-05T06:03:38.261Z,27.01
2019-01-05T06:06:04.555Z,26.94
2019-01-05T06:08:30.934Z,26.97
2019-01-05T06:10:57.337Z,26.93
2019-01-05T06:13:23.623Z,27.03
2019-01-05T06:15:49.967Z,26.92
2019-01-05T06:18:16.368Z,27.08
2019-01-05T06:20:42.699Z,26.88
2019-01-05T06:23:09.042Z,26.89
2019-01-05T06:25:35.398Z,27.01
2019-01-05T06:28:01.738Z,26.89
2019-01-05T06:30:28.087Z,27.08
2019-01-05T06:32:54.492Z,27.15
2019-01-05T06:35:20.785Z,26.95
2019-01-05T06:37:47.111Z,27.00
2019-01-05T06:40:13.509Z,26.95
2019-01-05T06:42:39.837Z,27.12
2019-01-05T06:45:06.181Z,26.96
2019-01-05T06:47:32.495Z,27.06
2019-01-05T06:49:58.813Z,27.11
2019-01-05T06:52:25.176Z,27.13
2019-01-05T06:54:51.513Z,26.99
2019-01-05T06:57:17.924Z,27.05
2019-01-05T06:59:44.281Z,26.91
2019-01-05T07:02:10.645Z,26.80
2019-01-05T07:04:36.956Z,26.88
2019-01-05T07:07:03.284Z,26.95
2019-01-05T07:09:29.629Z,26.95
2019-01-05T07:11:55.955Z,26.69
2019-01-05T07:14:22.289Z,26.54
2019-01-05T07:16:48.617Z,26.74
2019-01-05T07:19:14.978Z,26.69
2019-01-05T07:21:41.414Z,26.77
2019-01-05T07:24:07.872Z,26.93
2019-01-05T07:26:34.217Z,26.73
2019-01-05T07:29:00.548Z,26.58
2019-01-05T07:31:26.883Z,26.58
2019-01-05T07:33:53.219Z,26.65
2019-01-05T07:36:19.546Z,26.44
2019-01-05T07:38:45.893Z,26.18
2019-01-05T07:41:12.226Z,26.44
2019-01-05T07:43:38.613Z,26.28
2019-01-05T07:46:04.942Z,26.27
2019-01-05T07:48:31.272Z,26.21
2019-01-05T07:50:57.601Z,26.24
2019-01-05T07:53:23.934Z,26.23
2019-01-05T07:55:50.264Z,26.26
2019-01-05T07:58:16.618Z,26.39
2019-01-05T08:00:42.952Z,26.31
2019-01-05T08:03:09.279Z,26.43
2019-01-05T08:05:35.739Z,26.38
2019-01-05T08:08:02.043Z,26.52
2019-01-05T08:10:28.468Z,26.37
2019-01-05T08:12:54.893Z,26.66
2019-01-05T08:15:21.236Z,26.70
2019-01-05T08:17:47.567Z,26.65
2019-01-05T08:20:13.949Z,26.71
2019-01-05T08:22:40.286Z,26.85
2019-01-05T08:25:06.647Z,26.66
2019-01-05T08:27:32.998Z,26.71
2019-01-05T08:29:59.396Z,26.93
2019-01-05T08:32:25.731Z,27.11
2019-01-05T08:34:52.030Z,26.83
2019-01-05T08:37:18.430Z,26.89
2019-01-05T08:39:44.845Z,26.84
2019-01-05T08:42:11.182Z,26.82
2019-01-05T08:44:37.461Z,26.85
2019-01-05T08:47:03.819Z,26.99
2019-01-05T08:49:30.261Z,26.96
2019-01-05T08:51:56.675Z,26.95
2019-01-05T08:54:22.963Z,27.00
2019-01-05T08:56:49.330Z,27.09
2019-01-05T08:59:15.614Z,27.12
2019-01-05T09:01:42.006Z,27.13
2019-01-05T09:04:08.361Z,27.20
2019-01-05T09:06:34.692Z,27.07
2019-01-05T09:09:01.043Z,26.91
2019-01-05T09:11:27.387Z,27.12
2019-01-05T09:13:53.724Z,27.10
2019-01-05T09:16:20.093Z,27.28
2019-01-05T09:18:46.522Z,27.06
2019-01-05T09:21:12.879Z,27.30
2019-01-05T09:23:39.246Z,27.08
2019-01-05T09:26:05.543Z,26.98
2019-01-05T09:28:31.866Z,26.88
2019-01-05T09:30:58.199Z,26.92
2019-01-05T09:33:24.530Z,27.01
2019-01-05T09:35:50.849Z,26.91
2019-01-05T09:38:17.187Z,27.22
2019-01-05T09:40:43.549Z,26.99
2019-01-05T09:43:09.902Z,27.00
2019-01-05T09:45:36.232Z,26.93
2019-01-05T09:48:02.649Z,27.17
2019-01-05T09:50:29.002Z,27.09
2019-01-05T09:52:55.364Z,27.08
2019-01-05T09:55:21.711Z,26.96
2019-01-05T09:57:48.037Z,26.79
2019-01-05T10:00:14.454Z,26.89
2019-01-05T10:02:40.783Z,27.04
2019-01-05T10:05:07.112Z,26.81
2019-01-05T10:07:33.454Z,26.72
2019-01-05T10:09:59.981Z,26.39
2019-01-05T10:12:26.338Z,26.69
2019-01-05T10:14:52.718Z,26.72
2019-01-05T10:17:19.171Z,26.77
2019-01-05T10:19:45.568Z,26.83
2019-01-05T10:22:11.965Z,26.71
2019-01-05T10:24:38.289Z,26.84
2019-01-05T10:27:04.611Z,26.94
2019-01-05T10:29:30.950Z,26.86
2019-01-05T10:31:57.373Z,26.89
2019-01-05T10:34:23.702Z,27.04
2019-01-05T10:36:50.035Z,27.04
2019-01-05T10:39:16.429Z,27.04
2019-01-05T10:41:42.811Z,26.83
2019-01-05T10:44:09.298Z,27.05
2019-01-05T10:46:35.628Z,26.94
2019-01-05T10:49:01.951Z,26.85
2019-01-05T10:51:28.418Z,26.87
2019-01-05T10:53:54.792Z,26.97
2019-01-05T10:56:21.110Z,26.96
2019-01-05T10:58:47.455Z,26.90
2019-01-05T11:01:13.818Z,27.00
2019-01-05T11:03:40.389Z,26.97
2019-01-05T11:06:06.781Z,27.14
2019-01-05T11:08:33.161Z,27.19
2019-01-05T11:10:59.489Z,27.12
2019-01-05T11:13:25.936Z,27.00
2019-01-05T11:15:52.299Z,27.11
2019-01-05T11:18:18.608Z,27.01
2019-01-05T11:20:44.966Z,27.00
2019-01-05T11:23:11.299Z,27.11
2019-01-05T11:25:37.681Z,27.09
2019-01-05T11:28:04.070Z,27.25
2019-01-05T11:30:30.415Z,27.15
2019-01-05T11:32:56.732Z,27.23
2019-01-05T11:35:23.090Z,27.14
2019-01-05T11:37:49.439Z,27.19
2019-01-05T11:40:15.813Z,27.13
2019-01-05T11:42:42.137Z,27.16
2019-01-05T11:45:08.478Z,27.17
2019-01-05T11:47:34.965Z,27.25
2019-01-05T11:50:01.282Z,27.24
2019-01-05T11:52:27.671Z,27.33
2019-01-05T11:54:54.003Z,27.24
2019-01-05T11:57:20.466Z,27.16
2019-01-05T11:59:46.852Z,27.20
2019-01-05T12:02:19.507Z,27.28
2019-01-05T12:04:39.608Z,27.35
2019-01-05T12:07:05.940Z,27.32
2019-01-05T12:09:32.265Z,27.33
2019-01-05T12:11:58.656Z,27.23
2019-01-05T12:14:25.060Z,27.34
2019-01-05T12:16:51.515Z,27.27
2019-01-05T12:19:17.954Z,27.36
2019-01-05T12:21:44.304Z,27.30
2019-01-05T12:24:10.627Z,27.29
2019-01-05T12:26:37.014Z,27.35
2019-01-05T12:29:03.394Z,27.25
2019-01-05T12:31:29.684Z,27.20
2019-01-05T12:33:56.010Z,27.22
2019-01-05T12:36:22.403Z,27.34
2019-01-05T12:38:48.808Z,27.42
2019-01-05T12:41:15.213Z,27.36
2019-01-05T12:43:41.571Z,27.34
2019-01-05T12:46:07.943Z,27.28
2019-01-05T12:48:34.359Z,27.30
2019-01-05T12:51:00.756Z,27.28
2019-01-05T12:53:27.085Z,27.43
2019-01-05T12:55:53.426Z,27.28
2019-01-05T12:58:19.777Z,27.42
2019-01-05T13:00:46.124Z,27.30
2019-01-05T13:03:12.482Z,27.24
2019-01-05T13:05:38.958Z,27.31
2019-01-05T13:08:05.308Z,27.31
2019-01-05T13:10:31.710Z,27.37
2019-01-05T13:12:58.045Z,27.40
2019-01-05T13:15:24.535Z,27.28
2019-01-05T13:17:50.893Z,27.25
2019-01-05T13:20:17.232Z,27.32
2019-01-05T13:22:43.613Z,27.29
2019-01-05T13:25:10.009Z,27.45
2019-01-05T13:27:36.336Z,27.34
2019-01-05T13:30:02.770Z,27.23
2019-01-05T13:32:29.124Z,27.20
2019-01-05T13:34:55.553Z,27.23
2019-01-05T13:37:21.959Z,27.43
2019-01-05T13:39:48.297Z,27.36
2019-01-05T13:42:14.675Z,27.38
2019-01-05T13:44:41.000Z,27.37
2019-01-05T13:47:07.354Z,27.26
2019-01-05T13:49:33.686Z,27.32
2019-01-05T13:52:00.053Z,27.29
2019-01-05T13:54:26.384Z,27.25
2019-01-05T13:56:52.783Z,27.46
2019-01-05T13:59:19.118Z,27.34
2019-01-05T14:01:45.439Z,27.25
2019-01-05T14:04:11.781Z,27.25
2019-01-05T14:06:38.101Z,27.28
2019-01-05T14:09:04.494Z,27.22
2019-01-05T14:11:30.821Z,27.37
2019-01-05T14:13:57.171Z,27.44
2019-01-05T14:16:23.507Z,27.32
2019-01-05T14:18:49.895Z,27.33
2019-01-05T14:21:16.267Z,27.42
2019-01-05T14:23:42.597Z,27.25
2019-01-05T14:26:08.921Z,27.35
2019-01-05T14:28:35.262Z,27.48
2019-01-05T14:31:01.644Z,27.28
2019-01-05T14:33:28.000Z,27.28
2019-01-05T14:35:54.410Z,27.42
2019-01-05T14:38:20.769Z,27.35
2019-01-05T14:40:47.100Z,27.18
2019-01-05T14:43:13.449Z,27.43
2019-01-05T14:45:39.829Z,27.37
2019-01-05T14:48:06.190Z,27.35
2019-01-05T14:50:32.563Z,27.33
2019-01-05T14:52:58.896Z,27.36
2019-01-05T14:55:25.307Z,27.29
2019-01-05T14:57:51.644Z,27.31
2019-01-05T15:00:18.050Z,27.37
2019-01-05T15:02:44.348Z,27.43
2019-01-05T15:05:10.749Z,27.21
2019-01-05T15:07:37.136Z,27.44
2019-01-05T15:10:03.412Z,27.29
2019-01-05T15:12:29.743Z,27.33
2019-01-05T15:14:56.143Z,27.30
2019-01-05T15:17:22.527Z,27.41
2019-01-05T15:19:48.974Z,27.50
2019-01-05T15:22:15.377Z,27.35
2019-01-05T15:24:41.701Z,27.35
2019-01-05T15:27:08.094Z,27.27
2019-01-05T15:29:34.370Z,27.39
2019-01-05T15:32:00.719Z,27.40
2019-01-05T15:34:29.306Z,27.50
2019-01-05T15:36:56.315Z,27.22
2019-01-05T15:39:22.149Z,27.33
2019-01-05T15:41:48.490Z,27.18
2019-01-05T15:44:14.821Z,27.29
2019-01-05T15:46:42.583Z,27.30
2019-01-05T15:49:07.544Z,27.33
2019-01-05T15:51:34.027Z,27.28
2019-01-05T15:54:00.460Z,27.28
2019-01-05T15:56:26.790Z,27.40
2019-01-05T15:58:53.182Z,27.18
2019-01-05T16:01:19.523Z,27.38
2019-01-05T16:03:45.914Z,27.31
2019-01-05T16:06:12.261Z,27.45
2019-01-05T16:08:38.668Z,27.38
2019-01-05T16:11:05.009Z,27.32
2019-01-05T16:13:31.370Z,27.31
2019-01-05T16:15:57.723Z,27.31
2019-01-05T16:18:24.074Z,27.41
2019-01-05T16:20:50.427Z,27.45
2019-01-05T16:23:16.822Z,27.35
2019-01-05T16:25:43.257Z,27.29
2019-01-05T16:28:09.526Z,27.29
2019-01-05T16:30:35.865Z,27.30
2019-01-05T16:33:02.199Z,27.38
2019-01-05T16:35:28.582Z,27.28
2019-01-05T16:37:54.969Z,27.28
2019-01-05T16:40:21.463Z,27.30
2019-01-05T16:42:47.870Z,27.28
2019-01-05T16:45:14.216Z,27.32
2019-01-05T16:47:40.604Z,27.19
2019-01-05T16:50:06.949Z,27.28
2019-01-05T16:52:33.274Z,27.25
2019-01-05T16:54:59.640Z,27.10
2019-01-05T16:57:25.979Z,27.30
2019-01-05T16:59:52.322Z,27.25
2019-01-05T17:02:18.651Z,27.25
2019-01-05T17:04:45.028Z,27.33
2019-01-05T17:07:11.337Z,27.31
2019-01-05T17:09:37.681Z,27.04
2019-01-05T17:12:04.084Z,27.25
2019-01-05T17:14:30.415Z,27.32
2019-01-05T17:16:56.745Z,27.20
2019-01-05T17:19:23.099Z,27.34
2019-01-05T17:21:49.465Z,27.29
2019-01-05T17:24:15.802Z,27.21
2019-01-05T17:26:42.140Z,27.12
2019-01-05T17:29:08.476Z,27.22
2019-01-05T17:31:34.904Z,27.26
2019-01-05T17:34:01.217Z,27.20
2019-01-05T17:36:27.573Z,27.23
2019-01-05T17:38:53.998Z,27.24
2019-01-05T17:41:20.329Z,27.22
2019-01-05T17:43:46.642Z,27.14
2019-01-05T17:46:13.054Z,27.17
2019-01-05T17:48:39.415Z,27.16
2019-01-05T17:51:05.840Z,27.30
2019-01-05T17:53:32.262Z,27.37
2019-01-05T17:55:58.608Z,27.17
2019-01-05T17:58:25.062Z,27.29
2019-01-05T18:00:51.664Z,27.45
2019-01-05T18:03:17.947Z,27.30
2019-01-05T18:05:44.308Z,27.24
2019-01-05T18:08:10.643Z,27.35
2019-01-05T18:10:36.992Z,27.18
2019-01-05T18:13:03.348Z,27.18
2019-01-05T18:15:29.670Z,27.14
2019-01-05T18:17:56.045Z,27.29
2019-01-05T18:20:22.394Z,27.14
2019-01-05T18:22:48.796Z,27.35
2019-01-05T18:25:15.116Z,27.25
2019-01-05T18:27:41.515Z,27.30
2019-01-05T18:30:07.841Z,27.29
2019-01-05T18:32:34.196Z,27.23
2019-01-05T18:35:00.515Z,27.14
2019-01-05T18:37:26.840Z,27.23
2019-01-05T18:39:53.225Z,27.33
2019-01-05T18:42:19.553Z,27.29
2019-01-05T18:44:45.883Z,27.11
2019-01-05T18:47:12.227Z,27.19
2019-01-05T18:49:38.576Z,27.19
2019-01-05T18:52:04.906Z,27.22
2019-01-05T18:54:31.258Z,27.32
2019-01-05T18:56:57.638Z,27.28
2019-01-05T18:59:23.998Z,27.12
2019-01-05T19:01:50.358Z,27.09
2019-01-05T19:04:16.790Z,27.19
2019-01-05T19:06:43.130Z,27.05
2019-01-05T19:09:09.468Z,27.18
2019-01-05T19:11:35.800Z,27.22
2019-01-05T19:14:02.219Z,27.17
2019-01-05T19:16:28.527Z,27.27
2019-01-05T19:18:54.939Z,27.11
2019-01-05T19:21:21.251Z,27.26
2019-01-05T19:23:47.595Z,27.27
2019-01-05T19:26:13.967Z,27.40
2019-01-05T19:28:40.423Z,27.08
2019-01-05T19:31:06.763Z,27.09
2019-01-05T19:33:33.111Z,27.20
2019-01-05T19:35:59.481Z,27.18
2019-01-05T19:38:25.849Z,27.22
2019-01-05T19:40:52.207Z,27.10
2019-01-05T19:43:18.541Z,27.19
2019-01-05T19:45:44.899Z,27.14
2019-01-05T19:48:11.228Z,26.94
2019-01-05T19:50:37.566Z,27.22
2019-01-05T19:53:03.916Z,27.16
2019-01-05T19:55:30.237Z,27.19
2019-01-05T19:57:56.576Z,27.28
2019-01-05T20:00:22.902Z,27.14
2019-01-05T20:02:49.233Z,26.96
2019-01-05T20:05:15.557Z,27.09
2019-01-05T20:07:41.997Z,27.13
2019-01-05T20:10:08.328Z,27.17
2019-01-05T20:12:34.686Z,27.19
2019-01-05T20:15:01.031Z,27.12
2019-01-05T20:17:27.362Z,27.07
2019-01-05T20:19:53.696Z,26.93
2019-01-05T20:22:20.027Z,27.06
2019-01-05T20:24:46.413Z,27.03
2019-01-05T20:27:12.759Z,27.18
2019-01-05T20:29:39.152Z,26.99
2019-01-05T20:32:05.506Z,27.17
2019-01-05T20:34:31.843Z,26.91
2019-01-05T20:36:58.163Z,27.07
2019-01-05T20:39:24.497Z,27.14
2019-01-05T20:41:50.827Z,27.11
2019-01-05T20:44:17.170Z,26.99
2019-01-05T20:46:43.500Z,26.96
2019-01-05T20:49:09.868Z,27.09
2019-01-05T20:51:36.164Z,26.87
2019-01-05T20:54:02.511Z,27.02
2019-01-05T20:56:28.885Z,26.99
2019-01-05T20:58:55.241Z,26.72
2019-01-05T21:01:21.585Z,26.93
2019-01-05T21:03:47.960Z,27.02
2019-01-05T21:06:14.274Z,26.90
2019-01-05T21:08:40.647Z,26.98
2019-01-05T21:11:06.996Z,27.12
2019-01-05T21:13:33.429Z,27.10
2019-01-05T21:15:59.907Z,26.82
2019-01-05T21:18:26.256Z,26.79
2019-01-05T21:20:52.614Z,26.94
2019-01-05T21:23:19.023Z,26.97
2019-01-05T21:25:45.325Z,27.27
2019-01-05T21:28:11.726Z,27.14
2019-01-05T21:30:38.077Z,26.97
2019-01-05T21:33:04.378Z,26.91
2019-01-05T21:35:30.709Z,26.89
2019-01-05T21:37:57.039Z,26.98
2019-01-05T21:40:23.366Z,27.01
2019-01-05T21:42:49.801Z,27.08
2019-01-05T21:45:16.204Z,27.00
2019-01-05T21:47:42.544Z,26.96
2019-01-05T21:50:08.882Z,26.80
2019-01-05T21:52:35.267Z,26.79
2019-01-05T21:55:01.548Z,27.13
2019-01-05T21:57:27.922Z,27.10
2019-01-05T21:59:54.217Z,26.96
2019-01-05T22:02:20.581Z,26.79
2019-01-05T22:04:46.879Z,26.93
2019-01-05T22:07:13.226Z,27.09
2019-01-05T22:09:39.585Z,26.94
2019-01-05T22:12:05.910Z,27.00
2019-01-05T22:14:33.888Z,27.07
2019-01-05T22:16:58.634Z,26.99
2019-01-05T22:19:25.070Z,26.87
2019-01-05T22:21:51.401Z,27.02
2019-01-05T22:24:17.843Z,27.15
2019-01-05T22:26:44.187Z,26.95
2019-01-05T22:29:10.513Z,27.11
2019-01-05T22:31:36.871Z,27.03
2019-01-05T22:34:03.198Z,26.90
2019-01-05T22:36:29.528Z,26.79
2019-01-05T22:38:55.893Z,26.82
2019-01-05T22:41:22.226Z,26.96
2019-01-05T22:43:48.632Z,26.98
2019-01-05T22:46:15.174Z,26.93
2019-01-05T22:48:41.504Z,26.94
2019-01-05T22:51:07.860Z,27.05
2019-01-05T22:53:34.179Z,26.98
2019-01-05T22:56:00.559Z,27.05
2019-01-05T22:58:26.974Z,27.04
2019-01-05T23:00:53.301Z,27.05
2019-01-05T23:03:19.724Z,27.09
2019-01-05T23:05:46.077Z,27.15
2019-01-05T23:08:12.422Z,27.09
2019-01-05T23:10:38.780Z,27.19
2019-01-05T23:13:05.113Z,27.06
2019-01-05T23:15:31.445Z,27.21
2019-01-05T23:17:57.846Z,27.16
2019-01-05T23:20:24.206Z,27.19
2019-01-05T23:22:50.538Z,27.04
2019-01-05T23:25:16.890Z,27.14
2019-01-05T23:27:43.266Z,27.19
2019-01-05T23:30:09.594Z,27.33
2019-01-05T23:32:35.927Z,27.26
2019-01-05T23:35:04.204Z,27.25
2019-01-05T23:37:28.582Z,27.13
2019-01-05T23:39:54.953Z,27.16
2019-01-05T23:42:21.306Z,27.25
2019-01-05T23:44:47.579Z,26.99
2019-01-05T23:47:13.914Z,27.26
2019-01-05T23:49:40.298Z,27.21
2019-01-05T23:52:06.627Z,27.24
2019-01-05T23:54:32.958Z,27.04
2019-01-05T23:56:59.309Z,27.17
2019-01-05T23:59:25.640Z,27.20
